Terminal Aerodrome Forecast
Issued by NWS Mt. Holly, NJ

Home | Current Version | Previous Version | Text Only | Print | Product List | Glossary On
Versions: 1 2 3 4 5 6 7 8 9 10 11 12 13 14 15
000
FTUS41 KPHI 040554
TAFILG
TAF
KILG 040554Z 0406/0506 22006KT P6SM BKN120
     FM041500 24012G22KT P6SM BKN040 PROB30 0420/0422 5SM -TSRA
      OVC035CB
     FM042300 VRB05KT P6SM BKN080=

USA.gov is the U.S. government's official web portal to all federal, state and local government web resources and services.